Time;durP1;ratioP1;P1;durP2;ratioP2;P2;SDS_P1;SDS_P2;PMS_P1;PMS_P2;Temp;Humidity;BMP_temperature;BMP_pressure;BME280_temperature;BME280_humidity;BME280_pressure;Samples;Min_cycle;Max_cycle;Signal;HPM_P1;HPM_P2
2023/05/21 00:02:03;;;;;;;10.52;5.07;;;;;;;14.83;90.58;102485.97;5079183;28;20036;-68
2023/05/21 00:04:30;;;;;;;6.25;4.97;;;;;;;14.46;90.58;102425.38;5092074;28;20011;-68
2023/05/21 00:06:57;;;;;;;8.43;4.88;;;;;;;14.77;90.51;102487.59;5083269;28;20099;-67
2023/05/21 00:09:23;;;;;;;10.35;4.80;;;;;;;14.73;90.32;102486.25;5088607;28;20562;-68
2023/05/21 00:11:48;;;;;;;7.07;5.07;;;;;;;14.75;90.49;102486.09;5100267;28;20060;-68
2023/05/21 00:14:14;;;;;;;10.10;5.07;;;;;;;14.76;90.13;102490.47;5081279;28;20073;-68
2023/05/21 00:16:39;;;;;;;6.53;4.20;;;;;;;14.54;90.52;102459.72;5082182;28;20047;-68
2023/05/21 00:19:05;;;;;;;7.40;5.25;;;;;;;14.68;90.43;102487.84;5065713;28;20085;-68
2023/05/21 00:21:30;;;;;;;9.25;5.00;;;;;;;14.63;90.26;102474.00;5083014;28;20035;-68
2023/05/21 00:23:56;;;;;;;9.15;5.05;;;;;;;14.59;90.01;102470.00;5048918;28;20115;-68
2023/05/21 00:26:25;;;;;;;5.55;4.68;;;;;;;14.65;89.78;102483.63;5100496;28;20024;-68
2023/05/21 00:28:50;;;;;;;6.20;4.65;;;;;;;14.49;89.75;102451.25;5081411;28;20055;-68
2023/05/21 00:31:16;;;;;;;7.47;4.65;;;;;;;14.58;89.91;102471.88;5082405;28;20222;-68
2023/05/21 00:33:42;;;;;;;7.72;4.90;;;;;;;14.47;90.11;102459.59;5065532;28;20040;-68
2023/05/21 00:36:07;;;;;;;7.50;4.70;;;;;;;14.48;89.98;102468.56;5081800;28;20048;-68
2023/05/21 00:38:33;;;;;;;6.93;4.88;;;;;;;14.54;89.99;102471.41;5099446;28;20055;-68
2023/05/21 00:41:02;;;;;;;6.93;4.50;;;;;;;14.52;90.20;102470.72;5101950;28;20032;-69
2023/05/21 00:43:27;;;;;;;8.68;4.82;;;;;;;14.51;90.14;102469.06;5069772;28;20036;-67
2023/05/21 00:45:55;;;;;;;6.47;4.50;;;;;;;14.48;89.75;102465.84;5081833;28;20024;-67
2023/05/21 00:48:21;;;;;;;7.45;4.43;;;;;;;14.48;89.68;102468.56;5081350;28;20035;-68
2023/05/21 00:50:48;;;;;;;9.38;4.50;;;;;;;14.47;90.09;102469.56;5091667;28;20119;-68
2023/05/21 00:53:16;;;;;;;6.53;4.50;;;;;;;14.43;89.80;102470.94;5105443;28;20046;-68
2023/05/21 00:55:41;;;;;;;7.32;5.07;;;;;;;14.37;89.99;102461.72;5099652;28;20364;-68
2023/05/21 00:58:07;;;;;;;6.85;5.03;;;;;;;14.43;89.71;102479.09;5065430;28;20043;-68
2023/05/21 01:00:34;;;;;;;8.02;4.80;;;;;;;14.43;89.73;102473.66;5080243;28;20111;-68
2023/05/21 01:03:00;;;;;;;7.00;4.47;;;;;;;14.41;89.96;102491.97;5081149;28;20043;-68
2023/05/21 01:05:29;;;;;;;6.07;4.38;;;;;;;14.39;89.68;102486.72;5081495;28;20084;-68
2023/05/21 01:07:56;;;;;;;7.63;4.97;;;;;;;14.37;89.39;102482.50;5081296;28;20418;-68
2023/05/21 01:10:23;;;;;;;6.38;4.28;;;;;;;14.35;89.53;102488.13;5099249;28;20081;-67
2023/05/21 01:12:49;;;;;;;8.25;4.70;;;;;;;14.33;89.67;102479.34;5081223;28;20019;-68
2023/05/21 01:15:15;;;;;;;7.55;4.90;;;;;;;14.31;89.90;102486.81;5098303;28;20032;-68
2023/05/21 01:17:41;;;;;;;9.27;5.10;;;;;;;14.31;89.69;102486.81;5080554;28;20391;-68
2023/05/21 01:20:10;;;;;;;8.35;5.10;;;;;;;14.29;89.67;102488.84;5080390;28;20036;-68
2023/05/21 01:22:42;;;;;;;6.72;5.03;;;;;;;14.19;89.73;102475.56;5078170;28;20410;-68
2023/05/21 01:25:08;;;;;;;6.85;4.88;;;;;;;14.18;89.63;102481.19;5079326;28;20020;-68
2023/05/21 01:27:34;;;;;;;7.30;4.60;;;;;;;14.20;89.51;102490.78;5080741;28;20101;-68
2023/05/21 01:29:59;;;;;;;6.32;4.88;;;;;;;14.10;89.60;102473.94;5097227;28;20487;-68
2023/05/21 01:32:46;;;;;;;6.65;4.82;;;;;;;14.10;89.49;102480.22;5071090;28;20032;-68
2023/05/21 01:35:16;;;;;;;6.80;5.00;;;;;;;13.99;89.50;102471.69;5098015;28;20110;-68
2023/05/21 01:38:09;;;;;;;10.05;5.32;;;;;;;14.07;89.85;102482.44;5098188;28;20020;-68
2023/05/21 01:40:43;;;;;;;6.30;4.78;;;;;;;14.03;89.79;102487.38;5093755;28;20031;-68
2023/05/21 01:43:10;;;;;;;7.57;5.30;;;;;;;14.00;89.65;102485.00;5081368;28;20020;-67
2023/05/21 01:45:39;;;;;;;8.32;5.50;;;;;;;13.93;89.79;102475.09;5064107;28;20032;-68
2023/05/21 01:48:06;;;;;;;6.93;4.95;;;;;;;13.97;89.83;102482.69;5099122;28;20038;-67
2023/05/21 01:50:33;;;;;;;7.15;5.20;;;;;;;13.98;89.72;102487.09;5080449;28;20558;-67
2023/05/21 01:53:02;;;;;;;5.45;4.85;;;;;;;13.96;89.75;102485.56;5098143;28;20036;-68
2023/05/21 01:55:29;;;;;;;7.93;5.32;;;;;;;13.93;90.03;102484.06;5080460;28;20440;-68
2023/05/21 01:57:55;;;;;;;8.18;5.55;;;;;;;13.95;89.78;102494.72;5079928;28;20066;-67
2023/05/21 02:00:21;;;;;;;10.57;5.30;;;;;;;13.92;89.85;102493.22;5098383;28;20051;-68
2023/05/21 02:02:47;;;;;;;6.80;5.13;;;;;;;13.90;90.07;102492.53;5098873;28;20059;-68
2023/05/21 02:05:13;;;;;;;6.68;5.03;;;;;;;13.88;90.39;102485.66;5080365;28;20016;-68
2023/05/21 02:07:39;;;;;;;8.55;5.03;;;;;;;13.82;90.14;102487.19;5079888;28;20042;-68
2023/05/21 02:10:05;;;;;;;8.55;4.97;;;;;;;13.79;90.29;102482.13;5098388;28;20043;-68
2023/05/21 02:12:31;;;;;;;8.15;5.40;;;;;;;13.81;90.36;102486.34;5079218;28;20028;-68
2023/05/21 02:14:56;;;;;;;9.05;4.97;;;;;;;13.77;90.36;102476.88;5046421;28;20035;-68
2023/05/21 02:17:23;;;;;;;6.72;5.10;;;;;;;13.65;90.43;102466.69;5102069;28;20091;-68
2023/05/21 02:19:49;;;;;;;10.30;5.50;;;;;;;13.63;90.49;102464.97;5092315;28;20012;-67
2023/05/21 02:22:15;;;;;;;6.63;5.07;;;;;;;13.67;90.72;102483.56;5093333;28;20016;-68
2023/05/21 02:24:40;;;;;;;6.82;4.90;;;;;;;13.62;90.16;102482.25;5097469;28;20024;-67
2023/05/21 02:27:06;;;;;;;7.43;4.85;;;;;;;13.46;90.39;102471.50;5078403;28;20139;-67
2023/05/21 02:29:33;;;;;;;9.88;5.22;;;;;;;13.46;90.19;102482.34;5077584;28;20020;-68
2023/05/21 02:31:58;;;;;;;8.50;5.65;;;;;;;13.39;90.23;102484.06;5079790;28;20046;-67
2023/05/21 02:34:24;;;;;;;8.15;5.45;;;;;;;13.34;90.37;102471.09;5079065;28;20032;-67
2023/05/21 02:36:51;;;;;;;7.20;5.28;;;;;;;13.41;90.44;102482.03;5079806;28;20028;-67
2023/05/21 02:39:18;;;;;;;6.97;5.25;;;;;;;13.33;90.72;102469.38;5079931;28;20028;-68
2023/05/21 02:41:45;;;;;;;8.05;5.40;;;;;;;13.43;90.80;102477.28;5046839;28;20038;-68
2023/05/21 02:44:10;;;;;;;7.93;5.78;;;;;;;13.46;90.56;102482.34;5097624;28;20000;-67
2023/05/21 02:46:36;;;;;;;7.78;5.38;;;;;;;13.46;90.81;102471.50;5079530;28;20055;-68
2023/05/21 02:49:01;;;;;;;6.88;5.43;;;;;;;13.46;90.82;102467.97;5062051;28;20024;-67
2023/05/21 02:51:27;;;;;;;9.07;5.32;;;;;;;13.55;90.79;102475.88;5075052;28;20471;-67
2023/05/21 02:53:52;;;;;;;8.02;5.38;;;;;;;13.53;90.93;102474.34;5078310;28;20077;-67
2023/05/21 02:56:18;;;;;;;7.82;5.30;;;;;;;13.56;91.02;102477.53;5080221;28;20081;-67
2023/05/21 02:58:44;;;;;;;6.85;4.85;;;;;;;13.46;90.91;102476.09;5061400;28;20035;-67
2023/05/21 03:01:09;;;;;;;7.43;5.35;;;;;;;13.58;90.88;102490.91;5074830;28;20052;-68
2023/05/21 03:03:36;;;;;;;7.22;5.50;;;;;;;13.45;90.96;102467.13;5060725;28;20031;-67
2023/05/21 03:06:02;;;;;;;8.00;5.60;;;;;;;13.55;90.73;102486.69;5097130;28;20053;-67
2023/05/21 03:08:27;;;;;;;8.40;5.18;;;;;;;13.53;90.92;102477.06;5079626;28;20035;-67
2023/05/21 03:10:54;;;;;;;7.93;5.35;;;;;;;13.60;90.56;102488.84;5079087;28;20471;-67
2023/05/21 03:13:20;;;;;;;6.57;5.07;;;;;;;13.62;90.51;102492.22;5079546;28;20028;-68
2023/05/21 03:15:45;;;;;;;9.57;5.30;;;;;;;13.58;90.33;102485.50;5079268;28;20025;-67
2023/05/21 03:18:11;;;;;;;9.02;5.70;;;;;;;13.56;90.18;102480.25;5076261;28;20042;-67
2023/05/21 03:20:42;;;;;;;6.72;5.18;;;;;;;13.48;89.82;102461.38;5044885;28;20038;-67
2023/05/21 03:23:08;;;;;;;6.80;5.00;;;;;;;13.61;89.44;102480.56;5062382;28;20028;-67
2023/05/21 03:25:35;;;;;;;7.55;4.82;;;;;;;13.60;89.05;102478.03;5101580;28;20027;-67
2023/05/21 03:28:01;;;;;;;7.35;5.13;;;;;;;13.72;88.82;102481.19;5066600;28;20028;-67
2023/05/21 03:30:26;;;;;;;6.97;5.07;;;;;;;14.25;86.84;102476.72;5083994;28;20092;-68
2023/05/21 03:32:52;;;;;;;6.03;4.75;;;;;;;15.02;83.46;102479.16;5099802;28;20097;-67
2023/05/21 03:35:17;;;;;;;6.65;4.78;;;;;;;15.22;82.15;102474.00;5065617;28;20064;-67
2023/05/21 03:37:43;;;;;;;6.63;4.50;;;;;;;16.11;78.87;102474.59;5066422;28;20032;-67
2023/05/21 03:40:09;;;;;;;8.07;4.82;;;;;;;16.89;75.36;102483.59;5101163;28;20088;-68
2023/05/21 03:42:35;;;;;;;7.53;4.63;;;;;;;17.41;72.68;102486.75;5083263;28;20032;-68
2023/05/21 03:45:00;;;;;;;6.97;4.68;;;;;;;17.96;70.65;102484.00;5101377;28;20041;-68
2023/05/21 03:47:26;;;;;;;6.43;4.38;;;;;;;18.38;68.85;102479.22;5101040;28;20093;-68
2023/05/21 03:49:51;;;;;;;5.13;3.85;;;;;;;18.76;67.12;102474.78;5082349;28;20035;-68
2023/05/21 03:52:16;;;;;;;6.55;4.38;;;;;;;19.10;65.54;102482.88;5082824;28;20028;-68
2023/05/21 03:54:42;;;;;;;7.63;4.25;;;;;;;19.28;64.36;102476.72;5049122;28;20032;-68
2023/05/21 03:57:08;;;;;;;6.03;4.30;;;;;;;19.45;63.38;102478.72;5082594;28;20403;-68
2023/05/21 03:59:34;;;;;;;6.32;4.22;;;;;;;19.63;62.27;102477.16;5082526;28;20510;-68
2023/05/21 04:01:59;;;;;;;5.28;4.05;;;;;;;19.92;61.13;102476.59;5082157;28;20028;-69
2023/05/21 04:04:25;;;;;;;5.90;4.07;;;;;;;20.09;59.64;102478.78;5049599;28;20081;-69
2023/05/21 04:06:50;;;;;;;5.38;4.07;;;;;;;20.36;58.72;102473.94;5083648;28;20103;-68
2023/05/21 04:09:16;;;;;;;6.43;3.80;;;;;;;20.59;57.19;102482.38;5081683;28;20028;-68
2023/05/21 04:11:41;;;;;;;4.70;3.70;;;;;;;20.71;56.41;102482.47;5098929;28;20107;-68
2023/05/21 04:14:06;;;;;;;5.50;3.97;;;;;;;20.89;55.19;102478.91;5109801;28;20497;-68
2023/05/21 04:16:34;;;;;;;5.35;3.90;;;;;;;21.13;54.64;102484.56;5067446;28;20039;-68
2023/05/21 04:18:59;;;;;;;5.60;3.83;;;;;;;21.31;53.17;102466.19;5049307;28;20160;-69
2023/05/21 04:21:24;;;;;;;5.13;3.60;;;;;;;21.67;52.14;102486.38;5082145;28;20155;-68
2023/05/21 04:23:52;;;;;;;5.15;3.65;;;;;;;21.95;51.01;102479.44;5103302;28;20073;-69
2023/05/21 04:26:18;;;;;;;5.72;3.67;;;;;;;22.31;49.83;102472.16;5087316;28;20028;-68
2023/05/21 04:28:44;;;;;;;4.55;3.38;;;;;;;22.55;49.22;102482.06;5100820;28;20034;-69
2023/05/21 04:31:11;;;;;;;5.07;3.60;;;;;;;22.64;48.68;102485.28;5082501;28;20431;-68
2023/05/21 04:33:37;;;;;;;4.65;3.42;;;;;;;22.78;48.07;102481.22;5100642;28;20115;-68
2023/05/21 04:36:02;;;;;;;3.80;3.05;;;;;;;22.96;47.04;102467.38;5099575;28;20040;-69
2023/05/21 04:38:28;;;;;;;3.90;3.05;;;;;;;23.13;46.42;102466.63;5098475;28;20039;-69
2023/05/21 04:40:54;;;;;;;5.88;3.03;;;;;;;23.20;45.81;102472.78;5081399;28;20466;-68
2023/05/21 04:43:28;;;;;;;4.75;3.13;;;;;;;23.39;45.24;102477.03;5081146;28;20343;-69
2023/05/21 04:45:57;;;;;;;6.70;3.28;;;;;;;23.53;44.63;102474.00;5080824;28;20020;-68
2023/05/21 04:48:26;;;;;;;4.47;3.00;;;;;;;23.66;44.00;102469.03;5080992;28;20031;-71
2023/05/21 04:50:52;;;;;;;4.40;2.90;;;;;;;23.73;43.93;102468.91;5065816;28;20039;-70
2023/05/21 04:53:18;;;;;;;5.45;2.70;;;;;;;23.83;43.35;102477.34;5065229;28;20024;-71
2023/05/21 04:55:43;;;;;;;3.63;2.55;;;;;;;23.91;43.26;102474.19;5099614;28;20027;-71
2023/05/21 04:58:12;;;;;;;4.22;2.53;;;;;;;23.91;42.85;102448.63;5078945;28;20107;-71
2023/05/21 05:00:39;;;;;;;4.40;2.30;;;;;;;23.98;42.89;102462.22;5066034;28;20055;-71
2023/05/21 05:03:04;;;;;;;3.90;2.55;;;;;;;23.76;42.83;102457.41;5104108;28;20020;-69
2023/05/21 05:05:30;;;;;;;4.82;2.53;;;;;;;23.89;42.49;102457.09;5064175;28;20451;-69
2023/05/21 05:07:57;;;;;;;4.40;2.33;;;;;;;23.80;42.50;102444.84;5064166;28;20060;-69
2023/05/21 05:10:22;;;;;;;3.67;2.38;;;;;;;23.89;42.37;102464.53;5064537;28;20032;-69
2023/05/21 05:12:48;;;;;;;3.30;2.20;;;;;;;23.88;42.47;102458.19;5064162;28;20446;-69
2023/05/21 05:15:13;;;;;;;3.95;2.30;;;;;;;23.78;42.69;102462.69;5098452;28;20032;-69
2023/05/21 05:17:39;;;;;;;5.35;2.00;;;;;;;23.80;42.32;102458.59;5065710;28;20048;-69
2023/05/21 05:20:08;;;;;;;2.53;1.85;;;;;;;23.81;42.04;102463.03;5059443;28;20036;-69
2023/05/21 05:22:34;;;;;;;5.85;2.20;;;;;;;23.67;42.28;102464.38;5078111;28;20399;-69
2023/05/21 05:24:59;;;;;;;4.00;2.03;;;;;;;23.53;42.65;102455.59;5098705;28;20020;-69
2023/05/21 05:27:25;;;;;;;3.80;1.90;;;;;;;23.48;42.40;102466.50;5064289;28;20479;-69
2023/05/21 05:29:51;;;;;;;5.35;2.00;;;;;;;23.49;42.33;102459.09;5080212;28;20124;-71
2023/05/21 05:32:16;;;;;;;5.25;2.00;;;;;;;23.33;42.34;102461.53;5087068;28;20070;-69
2023/05/21 05:34:43;;;;;;;5.25;1.98;;;;;;;23.25;42.26;102459.19;5099006;28;20170;-69
2023/05/21 05:37:09;;;;;;;3.42;1.92;;;;;;;23.37;42.22;102462.69;5081154;28;20031;-69
2023/05/21 05:39:34;;;;;;;3.22;1.70;;;;;;;22.79;43.24;102469.16;5081093;28;20028;-69
2023/05/21 05:42:00;;;;;;;3.35;1.80;;;;;;;22.36;43.99;102455.81;5083946;28;20116;-70
2023/05/21 05:44:26;;;;;;;3.47;1.55;;;;;;;22.31;44.12;102464.75;5063977;28;20097;-70
2023/05/21 05:46:51;;;;;;;1.63;1.45;;;;;;;22.24;44.36;102450.31;5080374;28;20074;-69
2023/05/21 05:49:17;;;;;;;5.65;1.63;;;;;;;22.25;44.25;102457.47;5081082;28;20024;-69
2023/05/21 05:51:43;;;;;;;5.65;1.98;;;;;;;22.16;43.97;102424.09;5063732;28;20031;-70
2023/05/21 05:54:08;;;;;;;3.25;1.60;;;;;;;22.39;43.93;102447.94;5080395;28;20032;-69
2023/05/21 05:56:33;;;;;;;3.00;1.55;;;;;;;22.54;43.58;102452.13;5063166;28;20028;-69
2023/05/21 05:58:59;;;;;;;3.00;1.65;;;;;;;22.61;43.23;102450.06;5080378;28;20543;-69
2023/05/21 06:01:25;;;;;;;3.80;1.60;;;;;;;22.62;42.86;102454.50;5063567;28;20108;-70
2023/05/21 06:03:51;;;;;;;5.72;1.50;;;;;;;22.63;42.73;102456.16;5079610;28;20127;-69
2023/05/21 06:06:16;;;;;;;1.98;1.50;;;;;;;22.64;42.78;102449.59;5079628;28;20024;-69
2023/05/21 06:08:42;;;;;;;2.40;1.40;;;;;;;22.90;42.23;102454.56;5079681;28;20417;-70
2023/05/21 06:11:08;;;;;;;4.43;1.83;;;;;;;23.04;42.22;102457.91;5097940;28;20032;-70
2023/05/21 06:13:34;;;;;;;2.80;1.40;;;;;;;23.12;41.95;102445.72;5079917;28;20085;-70
2023/05/21 06:15:59;;;;;;;3.15;1.60;;;;;;;23.18;41.52;102448.34;5097359;28;20035;-70
2023/05/21 06:18:25;;;;;;;4.30;1.50;;;;;;;23.17;41.16;102443.06;5080325;28;20115;-70
2023/05/21 06:20:50;;;;;;;6.35;1.38;;;;;;;23.12;41.07;102443.81;5080310;28;20032;-70
2023/05/21 06:23:16;;;;;;;5.47;1.55;;;;;;;23.18;41.09;102455.75;5080226;28;20072;-70
2023/05/21 06:25:41;;;;;;;2.63;1.23;;;;;;;23.26;40.90;102447.09;5079148;28;20024;-70
2023/05/21 06:28:07;;;;;;;2.60;1.50;;;;;;;23.45;40.43;102445.00;5079626;28;20111;-70
2023/05/21 06:30:32;;;;;;;3.63;1.30;;;;;;;23.56;40.31;102454.28;5095830;28;20031;-71
2023/05/21 06:32:58;;;;;;;4.50;1.52;;;;;;;23.58;39.96;102428.22;5044608;28;20561;-70
2023/05/21 06:35:23;;;;;;;3.15;1.50;;;;;;;23.52;39.38;102400.91;5059966;28;20546;-70
2023/05/21 06:37:49;;;;;;;3.47;1.40;;;;;;;23.84;39.21;102442.44;5078920;28;20028;-70
2023/05/21 06:40:14;;;;;;;3.85;1.25;;;;;;;23.92;39.63;102447.53;5079535;28;20050;-70
2023/05/21 06:42:40;;;;;;;2.38;1.20;;;;;;;24.10;38.87;102449.19;5097913;28;20032;-70
2023/05/21 06:45:06;;;;;;;5.03;1.20;;;;;;;24.04;38.99;102451.03;5078841;28;20024;-70
2023/05/21 06:47:31;;;;;;;5.43;1.20;;;;;;;23.84;38.66;102407.56;5079179;28;20024;-70
2023/05/21 06:49:58;;;;;;;4.13;1.20;;;;;;;24.17;38.26;102451.78;5077062;28;20059;-70
2023/05/21 06:52:25;;;;;;;1.17;0.93;;;;;;;24.20;37.98;102452.09;5077844;28;20063;-70
2023/05/21 06:54:51;;;;;;;4.95;1.50;;;;;;;24.24;38.10;102446.94;5074930;28;20032;-70
2023/05/21 06:57:16;;;;;;;3.30;1.40;;;;;;;24.23;37.99;102450.78;5077773;28;20030;-70
2023/05/21 06:59:41;;;;;;;4.95;1.40;;;;;;;24.33;37.30;102454.50;5097296;28;20056;-70
2023/05/21 07:02:07;;;;;;;4.28;1.65;;;;;;;24.38;37.55;102451.84;5079303;28;20116;-70
2023/05/21 07:04:34;;;;;;;3.03;1.10;;;;;;;24.42;37.21;102440.38;5062394;28;20368;-70
2023/05/21 07:07:00;;;;;;;3.05;1.40;;;;;;;24.65;36.96;102450.34;5097439;28;20027;-70
2023/05/21 07:09:25;;;;;;;4.55;1.65;;;;;;;24.65;36.69;102456.69;5061768;28;20449;-70
2023/05/21 07:11:52;;;;;;;3.55;1.25;;;;;;;24.55;36.94;102453.78;5078850;28;20031;-70
2023/05/21 07:14:17;;;;;;;5.90;1.35;;;;;;;24.61;36.39;102452.78;5096770;28;20035;-70
2023/05/21 07:16:43;;;;;;;4.75;1.48;;;;;;;24.71;35.85;102461.16;5078800;28;20028;-72
2023/05/21 07:19:08;;;;;;;8.13;1.67;;;;;;;24.71;35.96;102439.16;5096299;28;20032;-70
2023/05/21 07:21:34;;;;;;;2.72;1.30;;;;;;;24.68;35.80;102444.34;5079650;28;20053;-71
2023/05/21 07:23:59;;;;;;;2.60;1.10;;;;;;;24.35;35.35;102435.03;5086433;28;20031;-70
2023/05/21 07:26:25;;;;;;;2.63;1.25;;;;;;;24.51;35.74;102458.13;5098758;28;20548;-69
2023/05/21 07:28:50;;;;;;;2.67;1.30;;;;;;;24.45;35.56;102457.22;5079213;28;20031;-70
2023/05/21 07:31:16;;;;;;;2.90;1.30;;;;;;;24.58;35.93;102450.53;5078720;28;20047;-71
2023/05/21 07:33:43;;;;;;;6.35;1.67;;;;;;;24.33;35.04;102449.00;5062175;28;20114;-70
2023/05/21 07:36:08;;;;;;;3.58;1.50;;;;;;;24.39;35.45;102455.44;5046093;28;20028;-70
2023/05/21 07:38:34;;;;;;;3.63;1.52;;;;;;;24.00;34.94;102446.28;5078372;28;20039;-70
2023/05/21 07:40:59;;;;;;;3.70;1.50;;;;;;;23.91;35.04;102446.72;5080095;28;20032;-70
2023/05/21 07:43:25;;;;;;;5.03;1.80;;;;;;;24.20;35.31;102449.34;5081507;28;20047;-70
2023/05/21 07:45:50;;;;;;;2.72;1.52;;;;;;;23.94;34.55;102447.28;5078533;28;20039;-70
2023/05/21 07:48:17;;;;;;;2.90;1.40;;;;;;;24.00;34.41;102449.03;5078760;28;20024;-70
2023/05/21 07:50:43;;;;;;;2.85;1.52;;;;;;;24.28;34.98;102446.19;5062310;28;20340;-71
2023/05/21 07:53:09;;;;;;;4.25;1.52;;;;;;;24.56;34.34;102447.19;5061912;28;20028;-71
2023/05/21 07:55:36;;;;;;;2.83;1.48;;;;;;;24.22;34.00;102440.88;5076179;28;20035;-70
2023/05/21 07:58:04;;;;;;;3.17;1.45;;;;;;;23.95;33.62;102446.22;5078715;28;20042;-70
2023/05/21 08:00:41;;;;;;;2.72;1.58;;;;;;;23.96;33.98;102437.69;5060618;28;20097;-70
2023/05/21 08:03:07;;;;;;;2.55;1.40;;;;;;;23.49;34.21;102439.84;5093122;28;20027;-72
2023/05/21 08:05:32;;;;;;;3.92;1.50;;;;;;;23.77;34.20;102445.34;5058170;28;20394;-71
2023/05/21 08:07:57;;;;;;;3.88;1.40;;;;;;;24.05;34.33;102452.69;5061393;28;20491;-70
2023/05/21 08:10:23;;;;;;;5.55;1.70;;;;;;;23.80;34.35;102444.00;5063781;28;20048;-70
2023/05/21 08:12:48;;;;;;;3.17;1.42;;;;;;;23.35;34.24;102453.06;5082524;28;20176;-70
2023/05/21 08:15:14;;;;;;;3.22;1.42;;;;;;;23.86;33.86;102443.84;5051363;28;20069;-70
2023/05/21 08:17:39;;;;;;;3.10;1.60;;;;;;;23.57;37.74;102440.28;5091957;28;20062;-70
2023/05/21 08:20:05;;;;;;;3.38;1.10;;;;;;;23.31;38.31;102441.72;5084991;28;20084;-69
2023/05/21 08:22:31;;;;;;;3.70;1.30;;;;;;;22.97;39.06;102443.50;5082390;28;20044;-70
2023/05/21 08:24:57;;;;;;;5.03;1.50;;;;;;;22.83;40.94;102434.66;5065866;28;20016;-70
2023/05/21 08:27:22;;;;;;;2.22;1.20;;;;;;;22.75;39.30;102466.06;5065499;28;20028;-70
2023/05/21 08:29:49;;;;;;;4.68;1.50;;;;;;;22.20;40.48;102457.34;5065329;28;20051;-71
2023/05/21 08:32:14;;;;;;;5.20;1.80;;;;;;;21.87;47.44;102453.22;5099812;28;20053;-70
2023/05/21 08:34:40;;;;;;;2.65;1.60;;;;;;;22.00;47.80;102463.13;5065535;28;20039;-70
2023/05/21 08:37:05;;;;;;;2.22;1.50;;;;;;;21.91;46.57;102457.16;5099072;28;20088;-71
2023/05/21 08:39:31;;;;;;;2.20;1.60;;;;;;;21.59;47.70;102462.06;5082518;28;20048;-70
2023/05/21 08:42:07;;;;;;;3.78;1.58;;;;;;;21.26;48.79;102455.09;5065353;28;20024;-70
2023/05/21 08:44:36;;;;;;;2.35;1.55;;;;;;;21.08;50.07;102446.91;5081640;28;20035;-70
2023/05/21 08:47:06;;;;;;;4.10;1.67;;;;;;;21.07;48.41;102453.44;5103094;28;20335;-70
2023/05/21 08:49:34;;;;;;;4.57;1.65;;;;;;;20.86;46.98;102443.78;5104446;28;20020;-70
2023/05/21 08:52:01;;;;;;;2.20;1.30;;;;;;;20.75;47.14;102444.56;5099829;28;20047;-70
2023/05/21 08:54:26;;;;;;;4.50;1.42;;;;;;;20.78;47.02;102455.88;5065015;28;20085;-70
2023/05/21 08:56:54;;;;;;;4.72;1.30;;;;;;;20.62;47.47;102442.78;5081734;28;20028;-70
2023/05/21 08:59:20;;;;;;;3.78;1.50;;;;;;;20.53;49.46;102435.94;5082176;28;20044;-70
2023/05/21 09:01:48;;;;;;;3.30;1.80;;;;;;;20.91;49.19;102441.22;5108607;28;20058;-70
2023/05/21 09:04:15;;;;;;;5.20;1.73;;;;;;;20.88;48.75;102439.75;5055154;28;20051;-70
2023/05/21 09:06:41;;;;;;;3.92;1.70;;;;;;;20.61;52.05;102433.75;5083101;28;20398;-70
2023/05/21 09:09:22;;;;;;;4.93;1.95;;;;;;;20.59;55.61;102440.50;5048392;28;20036;-70
2023/05/21 09:11:48;;;;;;;3.88;1.70;;;;;;;20.77;57.34;102439.72;5099755;28;20387;-70
2023/05/21 09:14:15;;;;;;;2.83;2.03;;;;;;;20.40;60.56;102439.63;5079798;28;20032;-70
2023/05/21 09:16:41;;;;;;;3.75;2.10;;;;;;;20.49;63.28;102440.16;5078684;28;20511;-70
2023/05/21 09:19:06;;;;;;;4.47;1.90;;;;;;;20.37;63.00;102442.81;5099599;28;20184;-70
2023/05/21 09:21:32;;;;;;;3.03;2.00;;;;;;;20.30;58.93;102437.41;5062791;28;20036;-70
2023/05/21 09:24:00;;;;;;;4.30;1.92;;;;;;;20.27;60.44;102437.84;5063484;28;20035;-70
2023/05/21 09:26:25;;;;;;;4.32;2.00;;;;;;;20.14;61.61;102421.56;5077782;28;20060;-69
2023/05/21 09:28:56;;;;;;;5.18;1.80;;;;;;;19.84;64.04;102429.59;5081545;28;20028;-70
2023/05/21 09:31:28;;;;;;;3.63;2.00;;;;;;;20.02;63.96;102437.00;5099095;28;20077;-69
2023/05/21 09:33:56;;;;;;;3.28;2.10;;;;;;;19.80;65.01;102415.53;5098671;28;20035;-69
2023/05/21 09:36:22;;;;;;;4.45;2.10;;;;;;;19.77;66.44;102424.19;5099412;28;20502;-69
2023/05/21 09:38:48;;;;;;;2.67;2.00;;;;;;;19.62;67.88;102418.16;5099521;28;20036;-70
2023/05/21 09:41:13;;;;;;;5.25;1.90;;;;;;;19.75;66.52;102422.72;5081116;28;20403;-69
2023/05/21 09:43:43;;;;;;;1.90;1.63;;;;;;;20.04;65.14;102416.59;5098760;28;20024;-70
2023/05/21 09:46:09;;;;;;;6.05;1.80;;;;;;;19.93;62.51;102415.44;5072549;28;20024;-70
2023/05/21 09:48:40;;;;;;;4.10;2.20;;;;;;;20.04;64.44;102416.59;5091869;28;20036;-70
2023/05/21 09:51:23;;;;;;;5.80;2.05;;;;;;;19.82;65.40;102404.38;5098689;28;20028;-70
2023/05/21 09:53:56;;;;;;;5.18;1.98;;;;;;;19.63;66.30;102425.28;5068365;28;20028;-69
2023/05/21 09:56:28;;;;;;;2.55;1.70;;;;;;;19.65;64.14;102415.84;5082636;28;20016;-69
2023/05/21 09:59:05;;;;;;;3.95;1.90;;;;;;;19.67;62.49;102421.09;5098430;28;20045;-70
2023/05/21 10:01:36;;;;;;;3.38;2.10;;;;;;;19.55;65.14;102418.19;5081228;28;20071;-70
2023/05/21 10:04:05;;;;;;;5.45;1.70;;;;;;;19.40;64.43;102393.94;5081521;28;20095;-69
2023/05/21 10:06:33;;;;;;;5.40;2.35;;;;;;;19.24;65.77;102389.00;5079246;28;20024;-70
2023/05/21 10:09:01;;;;;;;5.05;1.90;;;;;;;19.21;66.19;102405.81;5080084;28;20038;-70
2023/05/21 10:11:32;;;;;;;3.20;1.58;;;;;;;19.48;61.98;102406.47;5080569;28;20114;-69
2023/05/21 10:14:06;;;;;;;4.78;1.60;;;;;;;19.60;61.65;102393.81;5079907;28;20104;-70
2023/05/21 10:16:32;;;;;;;3.28;1.60;;;;;;;19.92;61.11;102404.72;5079724;28;20120;-70
2023/05/21 10:18:58;;;;;;;2.38;1.45;;;;;;;20.15;59.17;102398.63;5044768;28;20085;-69
2023/05/21 10:21:25;;;;;;;6.95;1.80;;;;;;;20.26;59.13;102392.44;5097343;28;20441;-69
2023/05/21 10:23:50;;;;;;;4.15;1.50;;;;;;;20.46;59.41;102394.13;5097693;28;20036;-69
2023/05/21 10:26:20;;;;;;;3.53;1.40;;;;;;;20.61;56.91;102387.25;5061373;28;20054;-69
2023/05/21 10:28:47;;;;;;;4.38;1.75;;;;;;;20.57;54.59;102366.06;5079672;28;20031;-70
2023/05/21 10:31:13;;;;;;;2.55;1.33;;;;;;;20.80;54.17;102381.78;5079811;28;20030;-70
2023/05/21 10:33:40;;;;;;;6.05;1.60;;;;;;;20.99;53.77;102377.97;5112098;28;20036;-70
2023/05/21 10:36:06;;;;;;;5.00;1.60;;;;;;;21.02;52.53;102380.22;5086132;28;20054;-70
2023/05/21 10:38:32;;;;;;;2.15;1.40;;;;;;;21.11;52.12;102384.31;5078345;28;20111;-72
2023/05/21 10:41:00;;;;;;;7.88;1.75;;;;;;;21.06;50.27;102386.09;5079730;28;20669;-70
2023/05/21 10:43:43;;;;;;;3.85;1.42;;;;;;;20.82;52.93;102382.38;5077499;28;20028;-70
2023/05/21 10:46:11;;;;;;;3.83;1.48;;;;;;;20.67;52.31;102384.69;5097659;28;20202;-70
2023/05/21 10:49:15;;;;;;;6.15;1.83;;;;;;;20.96;53.32;102377.56;5096911;28;20100;-69
2023/05/21 10:52:05;;;;;;;5.43;1.80;;;;;;;20.61;55.67;102384.53;5097303;28;20024;-69
2023/05/21 10:54:42;;;;;;;4.53;1.80;;;;;;;20.36;58.70;102370.91;5096553;28;20020;-69
2023/05/21 10:57:51;;;;;;;8.60;1.95;;;;;;;20.59;58.71;102367.50;5079542;28;20031;-69
2023/05/21 11:00:19;;;;;;;2.92;1.50;;;;;;;20.69;58.30;102377.91;5078206;28;20129;-70
2023/05/21 11:02:45;;;;;;;4.32;1.50;;;;;;;20.86;58.39;102373.50;5082456;28;20024;-70
2023/05/21 11:05:11;;;;;;;3.78;1.80;;;;;;;20.78;57.60;102373.81;5077270;28;20031;-70
2023/05/21 11:07:52;;;;;;;2.47;1.48;;;;;;;20.88;55.29;102367.78;5078118;28;20038;-69
2023/05/21 11:10:37;;;;;;;2.80;1.50;;;;;;;21.02;54.48;102362.97;5062651;28;20039;-70
2023/05/21 11:13:15;;;;;;;5.63;1.45;;;;;;;21.16;53.79;102363.63;5097027;28;20031;-68
2023/05/21 11:15:56;;;;;;;4.03;1.50;;;;;;;21.23;53.00;102372.59;5075912;28;20047;-71
2023/05/21 11:18:22;;;;;;;2.55;1.50;;;;;;;21.41;52.31;102366.25;5094436;28;20024;-72
2023/05/21 11:20:50;;;;;;;4.10;1.50;;;;;;;21.42;51.73;102355.06;5092191;28;20040;-71
2023/05/21 11:23:17;;;;;;;5.20;1.30;;;;;;;21.37;50.85;102344.00;5102982;28;20085;-70
2023/05/21 11:25:42;;;;;;;3.63;1.42;;;;;;;21.43;50.20;102362.22;5062459;28;20115;-71